createdAt,value
2019-02-28T00:00:58.261Z,50.05
2019-02-28T00:01:58.426Z,51.27
2019-02-28T00:02:58.598Z,50.54
2019-02-28T00:03:59.131Z,66.41
2019-02-28T00:04:58.941Z,57.62
2019-02-28T00:05:59.113Z,57.37
2019-02-28T00:06:59.300Z,54.20
2019-02-28T00:07:59.459Z,54.93
2019-02-28T00:08:59.627Z,49.56
2019-02-28T00:09:59.801Z,49.07
2019-02-28T00:11:01.977Z,49.80
2019-02-28T00:12:00.153Z,48.58
2019-02-28T00:13:00.318Z,57.86
2019-02-28T00:14:00.482Z,47.85
2019-02-28T00:15:00.656Z,48.58
2019-02-28T00:16:03.276Z,48.58
2019-02-28T00:17:00.999Z,51.27
2019-02-28T00:18:01.171Z,50.05
2019-02-28T00:19:01.344Z,58.59
2019-02-28T00:20:01.517Z,49.07
2019-02-28T00:21:05.783Z,50.29
2019-02-28T00:22:01.865Z,50.29
2019-02-28T00:23:02.026Z,49.56
2019-02-28T00:24:02.202Z,56.40
2019-02-28T00:25:04.313Z,49.56
2019-02-28T00:26:02.545Z,53.96
2019-02-28T00:27:02.724Z,58.35
2019-02-28T00:28:02.907Z,57.37
2019-02-28T00:29:03.064Z,57.62
2019-02-28T00:30:05.975Z,48.58
2019-02-28T00:31:03.412Z,59.57
2019-02-28T00:32:03.601Z,57.86
2019-02-28T00:33:03.750Z,65.43
2019-02-28T00:34:05.477Z,59.57
2019-02-28T00:35:04.091Z,59.33
2019-02-28T00:36:04.275Z,67.38
2019-02-28T00:37:04.436Z,69.58
2019-02-28T00:38:04.614Z,49.80
2019-02-28T00:39:04.783Z,50.05
2019-02-28T00:40:06.643Z,58.35
2019-02-28T00:41:05.129Z,50.29
2019-02-28T00:42:05.296Z,58.84
2019-02-28T00:43:05.471Z,51.51
2019-02-28T00:44:05.642Z,57.86
2019-02-28T00:45:05.812Z,58.35
2019-02-28T00:46:07.294Z,48.83
2019-02-28T00:47:06.150Z,52.25
2019-02-28T00:48:06.324Z,60.06
2019-02-28T00:49:06.495Z,56.64
2019-02-28T00:50:06.671Z,48.83
2019-02-28T00:51:06.833Z,63.96
2019-02-28T00:52:07.008Z,50.54
2019-02-28T00:53:07.392Z,56.40
2019-02-28T00:54:08.650Z,49.32
2019-02-28T00:55:07.524Z,48.58
2019-02-28T00:56:07.727Z,57.62
2019-02-28T00:57:07.865Z,75.44
2019-02-28T00:58:08.032Z,49.56
2019-02-28T00:59:08.204Z,51.76
2019-02-28T01:00:08.375Z,51.51
2019-02-28T01:01:11.591Z,54.44
2019-02-28T01:02:08.719Z,54.93
2019-02-28T01:03:08.900Z,60.79
2019-02-28T01:04:09.063Z,51.27
2019-02-28T01:05:09.233Z,66.16
2019-02-28T01:07:09.575Z,48.34
2019-02-28T01:08:09.744Z,50.78
2019-02-28T01:10:10.080Z,52.00
2019-02-28T01:11:12.879Z,50.54
2019-02-28T01:12:10.426Z,49.56
2019-02-28T01:13:10.595Z,56.64
2019-02-28T01:14:10.769Z,52.00
2019-02-28T01:15:10.937Z,51.51
2019-02-28T01:16:11.111Z,51.76
2019-02-28T01:17:11.281Z,51.51
2019-02-28T01:18:11.453Z,54.69
2019-02-28T01:19:11.633Z,61.28
2019-02-28T01:20:14.910Z,56.15
2019-02-28T01:21:11.968Z,51.27
2019-02-28T01:22:12.135Z,50.54
2019-02-28T01:23:12.307Z,49.07
2019-02-28T01:24:12.494Z,50.54
2019-02-28T01:25:12.646Z,51.51
2019-02-28T01:26:12.824Z,50.54
2019-02-28T01:27:12.994Z,52.00
2019-02-28T01:28:13.165Z,51.51
2019-02-28T01:29:13.339Z,51.76
2019-02-28T01:30:13.512Z,52.00
2019-02-28T01:31:13.674Z,52.49
2019-02-28T01:32:15.793Z,54.44
2019-02-28T01:33:14.028Z,50.29
2019-02-28T01:34:14.191Z,53.47
2019-02-28T01:35:14.369Z,71.53
2019-02-28T01:36:15.519Z,60.79
2019-02-28T01:37:14.703Z,50.54
2019-02-28T01:38:14.866Z,56.40
2019-02-28T01:39:15.044Z,50.54
2019-02-28T01:40:15.216Z,50.54
2019-02-28T01:41:15.372Z,50.54
2019-02-28T01:42:16.255Z,49.32
2019-02-28T01:43:15.719Z,51.03
2019-02-28T01:44:15.885Z,49.56
2019-02-28T01:45:16.066Z,49.80
2019-02-28T01:46:17.277Z,50.29
2019-02-28T01:47:19.950Z,58.35
2019-02-28T01:48:16.564Z,49.32
2019-02-28T01:49:16.754Z,48.10
2019-02-28T01:50:16.922Z,51.76
2019-02-28T01:51:17.087Z,48.10
2019-02-28T01:52:17.266Z,56.88
2019-02-28T01:53:19.549Z,46.88
2019-02-28T01:54:17.615Z,51.03
2019-02-28T01:55:17.772Z,51.27
2019-02-28T01:56:17.943Z,51.03
2019-02-28T01:57:18.115Z,56.15
2019-02-28T01:58:18.292Z,50.78
2019-02-28T01:59:21.596Z,52.49
2019-02-28T02:00:18.630Z,54.93
2019-02-28T02:01:18.804Z,51.03
2019-02-28T02:02:18.972Z,47.85
2019-02-28T02:03:19.144Z,48.83
2019-02-28T02:04:19.314Z,55.42
2019-02-28T02:05:19.491Z,51.51
2019-02-28T02:06:22.475Z,56.15
2019-02-28T02:07:19.834Z,57.62
2019-02-28T02:08:20.001Z,56.64
2019-02-28T02:09:20.169Z,66.41
2019-02-28T02:10:21.446Z,56.64
2019-02-28T02:11:20.519Z,62.50
2019-02-28T02:12:20.700Z,54.20
2019-02-28T02:13:20.855Z,48.83
2019-02-28T02:14:21.029Z,50.54
2019-02-28T02:15:21.203Z,51.51
2019-02-28T02:16:26.837Z,59.08
2019-02-28T02:17:21.553Z,51.76
2019-02-28T02:18:21.714Z,50.29
2019-02-28T02:19:21.885Z,50.05
2019-02-28T02:20:23.493Z,52.25
2019-02-28T02:21:22.231Z,49.32
2019-02-28T02:22:22.399Z,65.92
2019-02-28T02:23:22.571Z,52.73
2019-02-28T02:24:24.315Z,52.73
2019-02-28T02:25:22.913Z,55.91
2019-02-28T02:26:23.085Z,60.79
2019-02-28T02:27:23.259Z,53.22
2019-02-28T02:28:26.737Z,59.08
2019-02-28T02:29:23.608Z,64.94
2019-02-28T02:30:23.777Z,52.98
2019-02-28T02:31:28.701Z,51.76
2019-02-28T02:32:24.124Z,60.79
2019-02-28T02:33:24.303Z,58.35
2019-02-28T02:34:28.126Z,52.49
2019-02-28T02:35:24.670Z,57.13
2019-02-28T02:36:24.813Z,52.49
2019-02-28T02:37:26.424Z,63.96
2019-02-28T02:38:25.160Z,57.86
2019-02-28T02:39:25.335Z,57.62
2019-02-28T02:40:25.500Z,53.22
2019-02-28T02:41:25.663Z,52.00
2019-02-28T02:42:25.833Z,52.25
2019-02-28T02:43:26.000Z,57.86
2019-02-28T02:44:30.490Z,52.00
2019-02-28T02:45:26.340Z,50.54
2019-02-28T02:46:26.549Z,56.64
2019-02-28T02:47:31.086Z,52.73
2019-02-28T02:48:26.863Z,57.13
2019-02-28T02:49:27.036Z,50.29
2019-02-28T02:50:34.011Z,50.29
2019-02-28T02:51:27.379Z,62.99
2019-02-28T02:52:30.410Z,55.66
2019-02-28T02:53:27.706Z,55.42
2019-02-28T02:54:27.887Z,56.88
2019-02-28T02:55:29.222Z,55.66
2019-02-28T02:56:28.230Z,54.44
2019-02-28T02:57:28.383Z,54.20
2019-02-28T02:58:28.560Z,61.77
2019-02-28T02:59:28.728Z,55.42
2019-02-28T03:00:28.935Z,49.80
2019-02-28T03:01:29.080Z,58.35
2019-02-28T03:02:33.269Z,61.28
2019-02-28T03:03:29.410Z,65.19
2019-02-28T03:04:29.575Z,61.52
2019-02-28T03:05:35.332Z,51.27
2019-02-28T03:06:29.928Z,51.51
2019-02-28T03:07:30.094Z,50.78
2019-02-28T03:08:35.680Z,55.42
2019-02-28T03:09:30.447Z,53.96
2019-02-28T03:10:30.609Z,50.54
2019-02-28T03:11:30.774Z,49.80
2019-02-28T03:12:31.437Z,56.40
2019-02-28T03:13:31.113Z,51.03
2019-02-28T03:14:31.283Z,50.29
2019-02-28T03:15:31.456Z,57.37
2019-02-28T03:16:33.023Z,55.91
2019-02-28T03:17:31.799Z,58.59
2019-02-28T03:18:31.974Z,65.92
2019-02-28T03:19:33.703Z,58.11
2019-02-28T03:20:32.305Z,50.54
2019-02-28T03:21:32.485Z,63.48
2019-02-28T03:22:32.652Z,56.15
2019-02-28T03:23:37.848Z,52.49
2019-02-28T03:24:33.011Z,55.18
2019-02-28T03:25:33.168Z,56.15
2019-02-28T03:26:33.340Z,50.78
2019-02-28T03:27:33.515Z,53.22
2019-02-28T03:28:33.703Z,54.20
2019-02-28T03:29:33.851Z,54.69
2019-02-28T03:30:34.106Z,54.93
2019-02-28T03:31:34.193Z,51.27
2019-02-28T03:32:41.979Z,51.76
2019-02-28T03:33:34.553Z,52.49
2019-02-28T03:34:34.705Z,51.76
2019-02-28T03:35:43.337Z,51.27
2019-02-28T03:36:35.043Z,54.93
2019-02-28T03:37:35.231Z,51.51
2019-02-28T03:38:35.393Z,52.73
2019-02-28T03:39:35.561Z,53.96
2019-02-28T03:40:39.764Z,54.44
2019-02-28T03:41:35.905Z,51.76
2019-02-28T03:42:36.079Z,53.47
2019-02-28T03:43:42.670Z,51.76
2019-02-28T03:44:36.431Z,52.98
2019-02-28T03:45:36.605Z,55.66
2019-02-28T03:46:36.755Z,52.00
2019-02-28T03:47:36.924Z,52.73
2019-02-28T03:48:37.098Z,58.11
2019-02-28T03:49:37.281Z,58.59
2019-02-28T03:50:37.439Z,55.91
2019-02-28T03:51:37.610Z,52.73
2019-02-28T03:52:42.115Z,54.20
2019-02-28T03:53:37.952Z,54.69
2019-02-28T03:54:38.110Z,52.98
2019-02-28T03:55:40.846Z,68.60
2019-02-28T03:56:38.467Z,58.35
2019-02-28T03:57:38.635Z,57.13
2019-02-28T03:58:42.913Z,56.88
2019-02-28T03:59:38.966Z,57.37
2019-02-28T04:00:39.131Z,56.64
2019-02-28T04:01:45.071Z,55.18
2019-02-28T04:02:39.525Z,62.74
2019-02-28T04:03:39.644Z,56.40
2019-02-28T04:04:39.809Z,52.73
2019-02-28T04:05:39.983Z,56.15
2019-02-28T04:06:41.050Z,58.84
2019-02-28T04:07:40.325Z,69.82
2019-02-28T04:08:40.526Z,62.26
2019-02-28T04:09:44.164Z,56.64
2019-02-28T04:10:40.835Z,56.64
2019-02-28T04:11:41.005Z,53.22
2019-02-28T04:12:45.648Z,54.44
2019-02-28T04:13:41.349Z,55.18
2019-02-28T04:14:41.511Z,56.40
2019-02-28T04:15:50.760Z,54.93
2019-02-28T04:16:41.856Z,55.18
2019-02-28T04:17:42.026Z,53.47
2019-02-28T04:18:46.188Z,57.13
2019-02-28T04:19:42.368Z,55.42
2019-02-28T04:20:42.543Z,54.93
2019-02-28T04:21:46.219Z,53.71
2019-02-28T04:22:42.885Z,54.93
2019-02-28T04:23:43.053Z,59.81
2019-02-28T04:24:46.389Z,57.13
2019-02-28T04:25:43.394Z,73.49
2019-02-28T04:26:43.565Z,64.21
2019-02-28T04:27:43.738Z,56.40
2019-02-28T04:28:43.906Z,53.71
2019-02-28T04:29:44.072Z,67.38
2019-02-28T04:30:44.248Z,56.40
2019-02-28T04:31:44.415Z,52.49
2019-02-28T04:32:44.586Z,52.00
2019-02-28T04:33:44.761Z,55.18
2019-02-28T04:34:45.762Z,53.71
2019-02-28T04:35:45.093Z,55.66
2019-02-28T04:36:45.260Z,55.18
2019-02-28T04:37:47.184Z,54.69
2019-02-28T04:38:45.594Z,53.47
2019-02-28T04:39:45.762Z,59.08
2019-02-28T04:40:45.932Z,51.03
2019-02-28T04:41:46.100Z,52.25
2019-02-28T04:42:46.280Z,53.71
2019-02-28T04:43:46.448Z,61.28
2019-02-28T04:44:49.180Z,58.84
2019-02-28T04:45:46.787Z,57.62
2019-02-28T04:46:46.961Z,56.40
2019-02-28T04:47:47.149Z,64.45
2019-02-28T04:48:48.435Z,55.91
2019-02-28T04:49:47.465Z,64.45
2019-02-28T04:50:47.644Z,66.65
2019-02-28T04:51:47.805Z,56.15
2019-02-28T04:52:48.312Z,56.88
2019-02-28T04:53:52.653Z,55.91
2019-02-28T04:54:48.315Z,55.66
2019-02-28T04:55:48.481Z,58.84
2019-02-28T04:56:48.646Z,57.13
2019-02-28T04:57:51.639Z,55.66
2019-02-28T04:58:48.988Z,55.42
2019-02-28T04:59:49.149Z,61.28
2019-02-28T05:00:49.315Z,72.27
2019-02-28T05:01:49.495Z,53.47
2019-02-28T05:02:53.778Z,55.18
2019-02-28T05:03:49.825Z,52.73
2019-02-28T05:04:49.996Z,52.73
2019-02-28T05:05:50.162Z,67.87
2019-02-28T05:06:52.126Z,68.36
2019-02-28T05:07:50.512Z,60.79
2019-02-28T05:08:50.702Z,53.47
2019-02-28T05:09:50.858Z,51.76
2019-02-28T05:10:55.570Z,52.73
2019-02-28T05:11:51.196Z,53.96
2019-02-28T05:12:51.368Z,54.20
2019-02-28T05:13:51.536Z,54.20
2019-02-28T05:14:51.701Z,55.42
2019-02-28T05:15:51.872Z,71.53
2019-02-28T05:16:52.043Z,63.48
2019-02-28T05:17:53.162Z,54.20
2019-02-28T05:18:52.385Z,66.65
2019-02-28T05:19:52.554Z,62.50
2019-02-28T05:20:52.725Z,62.99
2019-02-28T05:21:53.416Z,56.40
2019-02-28T05:22:53.070Z,56.88
2019-02-28T05:23:53.236Z,59.57
2019-02-28T05:24:53.407Z,56.15
2019-02-28T05:25:53.574Z,54.69
2019-02-28T05:26:53.746Z,57.37
2019-02-28T05:27:53.927Z,57.13
2019-02-28T05:28:54.087Z,54.69
2019-02-28T05:29:54.256Z,53.47
2019-02-28T05:30:54.431Z,67.38
2019-02-28T05:31:54.599Z,54.93
2019-02-28T05:32:54.772Z,53.22
2019-02-28T05:33:54.943Z,56.15
2019-02-28T05:34:55.110Z,54.20
2019-02-28T05:35:57.145Z,55.18
2019-02-28T05:36:55.456Z,55.18
2019-02-28T05:37:55.616Z,63.23
2019-02-28T05:38:56.577Z,64.21
2019-02-28T05:39:55.969Z,62.26
2019-02-28T05:40:56.136Z,63.96
2019-02-28T05:41:56.307Z,62.01
2019-02-28T05:42:58.424Z,65.19
2019-02-28T05:43:56.648Z,66.41
2019-02-28T05:44:56.820Z,59.81
2019-02-28T05:45:56.995Z,69.82
2019-02-28T05:46:58.133Z,60.30
2019-02-28T05:47:57.344Z,56.88
2019-02-28T05:48:57.503Z,66.65
2019-02-28T05:49:57.676Z,60.30
2019-02-28T05:50:57.843Z,62.26
2019-02-28T05:51:59.047Z,69.58
2019-02-28T05:52:58.190Z,54.93
2019-02-28T05:53:58.359Z,56.64
2019-02-28T05:54:58.530Z,64.94
2019-02-28T05:55:59.857Z,62.74
2019-02-28T05:56:58.872Z,74.71
2019-02-28T05:57:59.059Z,61.04
2019-02-28T05:58:59.217Z,70.56
2019-02-28T06:00:01.947Z,67.38
2019-02-28T06:00:59.555Z,79.83
2019-02-28T06:01:59.727Z,79.35
2019-02-28T06:02:59.895Z,81.30
2019-02-28T06:04:02.920Z,79.59
2019-02-28T06:05:00.277Z,81.79
2019-02-28T06:06:00.418Z,80.81
2019-02-28T06:07:00.573Z,66.65
2019-02-28T06:08:03.577Z,69.82
2019-02-28T06:09:00.914Z,70.07
2019-02-28T06:10:01.083Z,63.48
2019-02-28T06:11:01.529Z,60.30
2019-02-28T06:12:01.420Z,60.55
2019-02-28T06:13:01.589Z,68.36
2019-02-28T06:14:01.768Z,57.62
2019-02-28T06:15:03.538Z,70.07
2019-02-28T06:16:02.102Z,59.81
2019-02-28T06:17:02.279Z,64.94
2019-02-28T06:18:02.437Z,62.26
2019-02-28T06:19:07.835Z,64.94
2019-02-28T06:20:02.780Z,66.16
2019-02-28T06:21:02.949Z,65.19
2019-02-28T06:22:03.121Z,67.87
2019-02-28T06:23:03.291Z,62.01
2019-02-28T06:24:03.478Z,61.52
2019-02-28T06:25:03.642Z,58.84
2019-02-28T06:26:03.803Z,63.72
2019-02-28T06:27:06.775Z,65.67
2019-02-28T06:28:04.141Z,58.84
2019-02-28T06:29:04.983Z,73.24
2019-02-28T06:30:04.476Z,70.56
2019-02-28T06:31:04.654Z,83.25
2019-02-28T06:32:04.824Z,77.39
2019-02-28T06:33:05.000Z,80.57
2019-02-28T06:34:05.712Z,81.54
2019-02-28T06:35:05.335Z,83.25
2019-02-28T06:36:05.518Z,84.72
2019-02-28T06:37:05.689Z,83.74
2019-02-28T06:38:06.839Z,77.15
2019-02-28T06:39:06.042Z,91.55
2019-02-28T06:40:06.206Z,76.17
2019-02-28T06:41:07.642Z,75.20
2019-02-28T06:42:06.543Z,66.41
2019-02-28T06:43:06.714Z,63.23
2019-02-28T06:44:06.885Z,65.92
2019-02-28T06:45:07.053Z,71.04
2019-02-28T06:46:08.561Z,58.59
2019-02-28T06:47:07.397Z,61.77
2019-02-28T06:48:07.574Z,62.01
2019-02-28T06:49:07.751Z,60.79
2019-02-28T06:50:07.914Z,60.55
2019-02-28T06:51:08.108Z,64.94
2019-02-28T06:52:08.262Z,62.74
2019-02-28T06:53:08.435Z,63.23
2019-02-28T06:54:08.791Z,63.72
2019-02-28T06:55:08.777Z,63.23
2019-02-28T06:56:08.957Z,66.65
2019-02-28T06:57:09.122Z,76.17
2019-02-28T06:58:09.307Z,76.17
2019-02-28T06:59:09.469Z,69.82
2019-02-28T07:00:10.390Z,73.00
2019-02-28T07:01:11.241Z,71.04
2019-02-28T07:02:09.938Z,64.70
2019-02-28T07:03:10.109Z,71.04
2019-02-28T07:04:11.530Z,63.23
2019-02-28T07:05:10.487Z,69.34
2019-02-28T07:06:10.743Z,63.48
2019-02-28T07:07:13.595Z,61.28
2019-02-28T07:08:10.953Z,62.26
2019-02-28T07:09:11.125Z,66.89
2019-02-28T07:10:12.650Z,69.58
2019-02-28T07:11:11.467Z,62.50
2019-02-28T07:12:13.227Z,62.01
2019-02-28T07:13:11.981Z,61.52
2019-02-28T07:14:13.757Z,59.33
2019-02-28T07:15:12.154Z,71.78
2019-02-28T07:16:12.337Z,60.30
2019-02-28T07:17:12.509Z,68.12
2019-02-28T07:18:12.682Z,65.19
2019-02-28T07:19:12.855Z,61.04
2019-02-28T07:20:13.033Z,64.21
2019-02-28T07:21:13.200Z,61.77
2019-02-28T07:22:19.258Z,62.99
2019-02-28T07:23:13.545Z,60.79
2019-02-28T07:24:13.721Z,62.26
2019-02-28T07:25:14.006Z,57.13
2019-02-28T07:26:14.090Z,61.52
2019-02-28T07:27:14.243Z,62.01
2019-02-28T07:28:14.425Z,60.30
2019-02-28T07:29:14.591Z,63.48
2019-02-28T07:30:18.576Z,65.43
2019-02-28T07:31:14.951Z,64.45
2019-02-28T07:32:15.120Z,61.28
2019-02-28T07:33:15.296Z,66.41
2019-02-28T07:34:19.345Z,62.01
2019-02-28T07:35:15.640Z,63.96
2019-02-28T07:36:15.814Z,66.16
2019-02-28T07:37:18.720Z,60.30
2019-02-28T07:38:16.158Z,62.99
2019-02-28T07:39:16.334Z,62.50
2019-02-28T07:40:17.406Z,64.45
2019-02-28T07:41:16.680Z,66.89
2019-02-28T07:42:16.875Z,61.04
2019-02-28T07:43:17.035Z,62.26
2019-02-28T07:44:21.054Z,72.51
2019-02-28T07:45:17.392Z,66.65
2019-02-28T07:46:17.564Z,86.67
2019-02-28T07:47:18.442Z,62.99
2019-02-28T07:48:17.912Z,69.09
2019-02-28T07:49:18.085Z,67.63
2019-02-28T07:50:18.255Z,64.45
2019-02-28T07:51:22.002Z,62.74
2019-02-28T07:52:20.359Z,70.56
2019-02-28T07:53:18.787Z,62.26
2019-02-28T07:54:20.524Z,58.59
2019-02-28T07:55:19.139Z,70.80
2019-02-28T07:56:19.323Z,63.72
2019-02-28T07:57:19.487Z,60.30
2019-02-28T07:58:19.666Z,64.21
2019-02-28T07:59:19.845Z,64.21
2019-02-28T08:00:20.004Z,72.75
2019-02-28T08:01:20.185Z,72.75
2019-02-28T08:02:20.353Z,63.23
2019-02-28T08:03:20.534Z,76.17
2019-02-28T08:04:20.702Z,75.68
2019-02-28T08:05:20.900Z,62.74
2019-02-28T08:06:21.078Z,62.74
2019-02-28T08:07:21.220Z,63.23
2019-02-28T08:08:23.464Z,63.96
2019-02-28T08:09:21.577Z,62.01
2019-02-28T08:10:21.727Z,62.99
2019-02-28T08:11:21.905Z,70.56
2019-02-28T08:12:22.095Z,57.86
2019-02-28T08:13:22.276Z,59.57
2019-02-28T08:14:22.436Z,72.02
2019-02-28T08:15:22.888Z,68.36
2019-02-28T08:16:22.803Z,65.19
2019-02-28T08:17:22.957Z,65.43
2019-02-28T08:18:23.133Z,65.43
2019-02-28T08:19:27.155Z,61.77
2019-02-28T08:20:23.586Z,73.73
2019-02-28T08:21:23.670Z,63.72
2019-02-28T08:22:24.742Z,67.14
2019-02-28T08:23:24.018Z,58.35
2019-02-28T08:24:26.526Z,72.75
2019-02-28T08:25:24.441Z,62.50
2019-02-28T08:26:24.618Z,66.41
2019-02-28T08:27:25.410Z,72.27
2019-02-28T08:28:24.972Z,63.96
2019-02-28T08:29:25.145Z,61.52
2019-02-28T08:30:25.325Z,71.53
2019-02-28T08:31:28.409Z,63.96
2019-02-28T08:32:25.682Z,54.93
2019-02-28T08:33:25.876Z,63.23
2019-02-28T08:34:26.058Z,59.57
2019-02-28T08:35:26.227Z,57.62
2019-02-28T08:36:26.408Z,68.12
2019-02-28T08:37:26.580Z,62.50
2019-02-28T08:38:26.764Z,65.19
2019-02-28T08:39:26.943Z,63.48
2019-02-28T08:40:27.260Z,64.94
2019-02-28T08:41:27.322Z,66.41
2019-02-28T08:42:27.486Z,59.81
2019-02-28T08:43:27.669Z,62.74
2019-02-28T08:44:27.843Z,63.48
2019-02-28T08:46:28.210Z,73.00
2019-02-28T08:47:28.369Z,77.88
2019-02-28T08:48:31.755Z,68.36
2019-02-28T08:49:28.721Z,72.75
2019-02-28T08:50:28.903Z,65.92
2019-02-28T08:51:30.855Z,78.37
2019-02-28T08:52:29.263Z,63.96
2019-02-28T08:53:29.445Z,67.87
2019-02-28T08:54:29.631Z,68.36
2019-02-28T08:55:29.802Z,70.07
2019-02-28T08:56:31.633Z,66.16
2019-02-28T08:57:30.153Z,70.07
2019-02-28T08:58:30.332Z,68.12
2019-02-28T08:59:30.514Z,64.94
2019-02-28T09:00:32.952Z,71.29
2019-02-28T09:01:30.874Z,62.50
2019-02-28T09:02:31.046Z,63.72
2019-02-28T09:03:31.226Z,62.50
2019-02-28T09:04:31.407Z,63.72
2019-02-28T09:05:31.584Z,57.37
2019-02-28T09:06:31.766Z,62.50
2019-02-28T09:07:31.945Z,70.07
2019-02-28T09:08:32.125Z,71.04
2019-02-28T09:09:34.465Z,67.14
2019-02-28T09:10:32.482Z,65.19
2019-02-28T09:11:32.679Z,69.82
2019-02-28T09:12:33.345Z,68.36
2019-02-28T09:13:33.018Z,78.13
2019-02-28T09:14:33.204Z,63.72
2019-02-28T09:15:33.390Z,69.09
2019-02-28T09:16:36.688Z,62.99
2019-02-28T09:17:33.739Z,68.12
2019-02-28T09:18:33.917Z,67.63
2019-02-28T09:19:36.049Z,68.60
2019-02-28T09:20:34.273Z,63.96
2019-02-28T09:21:34.457Z,62.74
2019-02-28T09:22:34.654Z,62.26
2019-02-28T09:23:37.706Z,62.74
2019-02-28T09:24:35.011Z,63.23
2019-02-28T09:25:35.202Z,62.50
2019-02-28T09:26:35.381Z,66.65
2019-02-28T09:27:38.901Z,64.94
2019-02-28T09:28:35.746Z,67.14
2019-02-28T09:29:35.932Z,66.16
2019-02-28T09:30:36.109Z,69.34
2019-02-28T09:31:39.088Z,63.48
2019-02-28T09:32:36.476Z,62.74
2019-02-28T09:33:36.642Z,66.41
2019-02-28T09:34:36.829Z,65.67
2019-02-28T09:35:36.994Z,63.96
2019-02-28T09:36:37.196Z,65.19
2019-02-28T09:37:37.360Z,66.41
2019-02-28T09:38:37.528Z,67.14
2019-02-28T09:39:37.723Z,70.80
2019-02-28T09:40:37.903Z,78.37
2019-02-28T09:41:40.386Z,71.29
2019-02-28T09:42:38.286Z,66.65
2019-02-28T09:43:38.479Z,62.50
2019-02-28T09:44:38.648Z,66.65
2019-02-28T09:45:39.871Z,67.87
2019-02-28T09:46:38.995Z,79.35
2019-02-28T09:47:39.174Z,75.93
2019-02-28T09:48:39.359Z,66.89
2019-02-28T09:49:39.542Z,61.04
2019-02-28T09:50:39.729Z,58.84
2019-02-28T09:51:39.899Z,62.50
2019-02-28T09:52:41.819Z,62.01
2019-02-28T09:53:40.276Z,63.23
2019-02-28T09:54:42.045Z,66.89
2019-02-28T09:55:40.656Z,63.48
2019-02-28T09:56:41.159Z,62.74
2019-02-28T09:57:41.003Z,63.72
2019-02-28T09:58:41.183Z,59.33
2019-02-28T09:59:41.345Z,63.72
2019-02-28T10:00:43.227Z,67.63
2019-02-28T10:01:42.518Z,66.65
2019-02-28T10:02:43.785Z,67.63
2019-02-28T10:03:42.100Z,73.49
2019-02-28T10:04:42.262Z,69.34
2019-02-28T10:05:43.281Z,65.19
2019-02-28T10:06:42.633Z,73.97
2019-02-28T10:07:42.796Z,64.45
2019-02-28T10:08:42.984Z,67.14
2019-02-28T10:09:44.254Z,84.72
2019-02-28T10:10:43.371Z,71.04
2019-02-28T10:11:43.540Z,69.34
2019-02-28T10:12:43.719Z,74.46
2019-02-28T10:13:43.917Z,70.80
2019-02-28T10:14:44.112Z,75.44
2019-02-28T10:15:44.286Z,67.63
2019-02-28T10:16:44.474Z,79.10
2019-02-28T10:17:44.639Z,82.76
2019-02-28T10:18:44.841Z,63.72
2019-02-28T10:19:46.099Z,62.01
2019-02-28T10:20:45.195Z,58.84
2019-02-28T10:21:51.641Z,67.38
2019-02-28T10:22:47.313Z,67.63
2019-02-28T10:23:45.744Z,57.86
2019-02-28T10:24:45.926Z,64.70
2019-02-28T10:25:46.127Z,61.77
2019-02-28T10:26:48.160Z,64.21
2019-02-28T10:27:46.485Z,61.52
2019-02-28T10:28:46.665Z,65.19
2019-02-28T10:29:46.855Z,63.48
2019-02-28T10:30:47.233Z,66.89
2019-02-28T10:31:47.218Z,73.24
2019-02-28T10:32:47.396Z,74.46
2019-02-28T10:33:49.478Z,59.57
2019-02-28T10:34:47.770Z,60.55
2019-02-28T10:35:47.947Z,61.77
2019-02-28T10:36:48.897Z,60.30
2019-02-28T10:37:48.344Z,59.57
2019-02-28T10:38:48.532Z,61.04
2019-02-28T10:39:48.716Z,56.88
2019-02-28T10:40:49.373Z,63.48
2019-02-28T10:41:49.080Z,65.67
2019-02-28T10:42:49.550Z,63.96
2019-02-28T10:43:52.248Z,57.13
2019-02-28T10:44:49.617Z,57.13
2019-02-28T10:45:49.799Z,68.85
2019-02-28T10:46:50.323Z,59.81
2019-02-28T10:47:50.298Z,67.63
2019-02-28T10:48:51.088Z,58.84
2019-02-28T10:49:50.527Z,67.63
2019-02-28T10:50:50.689Z,80.32
2019-02-28T10:51:50.882Z,79.35
2019-02-28T10:52:51.064Z,60.30
2019-02-28T10:53:51.279Z,65.19
2019-02-28T10:54:51.450Z,72.51
2019-02-28T10:55:54.455Z,73.73
2019-02-28T10:56:51.803Z,66.89
2019-02-28T10:57:51.992Z,61.77
2019-02-28T10:58:53.801Z,68.85
2019-02-28T10:59:55.171Z,56.64
2019-02-28T11:00:52.535Z,74.95
2019-02-28T11:01:52.723Z,84.47
2019-02-28T11:02:53.770Z,83.50
2019-02-28T11:03:53.091Z,85.45
2019-02-28T11:04:53.275Z,84.23
2019-02-28T11:05:54.405Z,84.23
2019-02-28T11:06:53.639Z,79.35
2019-02-28T11:07:53.825Z,62.26
2019-02-28T11:08:54.006Z,63.23
2019-02-28T11:09:55.650Z,62.26
2019-02-28T11:10:54.403Z,65.43
2019-02-28T11:11:54.551Z,67.14
2019-02-28T11:12:57.131Z,71.29
2019-02-28T11:13:54.925Z,62.01
2019-02-28T11:14:55.090Z,59.33
2019-02-28T11:15:55.274Z,68.60
2019-02-28T11:16:59.097Z,61.77
2019-02-28T11:17:55.624Z,67.63
2019-02-28T11:18:55.811Z,68.36
2019-02-28T11:19:55.993Z,81.30
2019-02-28T11:20:58.146Z,71.04
2019-02-28T11:21:56.367Z,68.85
2019-02-28T11:22:56.539Z,74.46
2019-02-28T11:23:56.729Z,66.65
2019-02-28T11:24:57.269Z,65.19
2019-02-28T11:25:57.096Z,62.50
2019-02-28T11:26:57.280Z,63.23
2019-02-28T11:27:57.545Z,62.99
2019-02-28T11:29:02.861Z,61.77
2019-02-28T11:29:57.841Z,68.36
2019-02-28T11:30:57.997Z,65.67
2019-02-28T11:31:59.062Z,60.79
2019-02-28T11:33:03.242Z,57.62
2019-02-28T11:33:58.545Z,57.37
2019-02-28T11:34:58.749Z,53.47
2019-02-28T11:35:59.375Z,56.40
2019-02-28T11:36:59.082Z,70.31
2019-02-28T11:37:59.260Z,58.84
2019-02-28T11:38:59.459Z,60.30
2019-02-28T11:39:59.621Z,60.30
2019-02-28T11:40:59.804Z,59.81
2019-02-28T11:41:59.984Z,55.42
2019-02-28T11:43:02.810Z,59.57
2019-02-28T11:44:00.355Z,56.64
2019-02-28T11:45:00.526Z,65.43
2019-02-28T11:46:02.952Z,60.30
2019-02-28T11:47:00.887Z,58.59
2019-02-28T11:48:01.066Z,57.13
2019-02-28T11:49:01.257Z,59.33
2019-02-28T11:50:04.291Z,59.33
2019-02-28T11:51:01.613Z,63.48
2019-02-28T11:52:01.791Z,65.92
2019-02-28T11:53:05.771Z,62.26
2019-02-28T11:54:02.151Z,75.20
2019-02-28T11:55:02.332Z,64.45
2019-02-28T11:56:02.514Z,62.99
2019-02-28T11:57:03.109Z,63.72
2019-02-28T11:58:02.886Z,61.28
2019-02-28T11:59:03.067Z,67.38
2019-02-28T12:00:03.254Z,67.38
2019-02-28T12:01:03.437Z,64.94
2019-02-28T12:02:03.612Z,60.30
2019-02-28T12:03:05.434Z,59.33
2019-02-28T12:04:03.981Z,71.78
2019-02-28T12:05:04.160Z,77.64
2019-02-28T12:06:04.359Z,65.19
2019-02-28T12:07:05.011Z,71.29
2019-02-28T12:08:09.161Z,74.22
2019-02-28T12:09:04.869Z,69.34
2019-02-28T12:10:05.086Z,67.87
2019-02-28T12:11:05.229Z,65.43
2019-02-28T12:12:07.260Z,70.80
2019-02-28T12:13:05.592Z,67.87
2019-02-28T12:14:06.376Z,65.19
2019-02-28T12:15:06.776Z,66.65
2019-02-28T12:16:06.034Z,71.53
2019-02-28T12:17:06.232Z,67.63
2019-02-28T12:18:06.391Z,68.85
2019-02-28T12:19:06.591Z,62.01
2019-02-28T12:20:06.740Z,74.46
2019-02-28T12:21:06.916Z,66.16
2019-02-28T12:22:09.206Z,66.41
2019-02-28T12:23:07.256Z,73.97
2019-02-28T12:24:07.438Z,73.00
2019-02-28T12:25:08.455Z,67.14
2019-02-28T12:26:07.797Z,61.77
2019-02-28T12:27:07.954Z,62.50
2019-02-28T12:28:08.132Z,69.34
2019-02-28T12:29:09.486Z,75.44
2019-02-28T12:30:08.496Z,78.37
2019-02-28T12:31:08.671Z,63.72
2019-02-28T12:32:08.909Z,58.59
2019-02-28T12:33:09.020Z,59.81
2019-02-28T12:34:09.190Z,71.29
2019-02-28T12:35:09.365Z,74.46
2019-02-28T12:36:11.209Z,63.72
2019-02-28T12:37:09.742Z,61.28
2019-02-28T12:38:09.915Z,74.71
2019-02-28T12:39:10.095Z,66.41
2019-02-28T12:40:11.138Z,68.12
2019-02-28T12:41:10.454Z,74.95
2019-02-28T12:42:10.633Z,69.58
2019-02-28T12:43:10.812Z,63.72
2019-02-28T12:44:12.428Z,71.04
2019-02-28T12:45:11.184Z,70.80
2019-02-28T12:46:11.332Z,64.70
2019-02-28T12:47:11.519Z,60.30
2019-02-28T12:48:13.745Z,71.29
2019-02-28T12:49:11.862Z,63.96
2019-02-28T12:50:12.045Z,65.19
2019-02-28T12:51:12.241Z,57.62
2019-02-28T12:52:14.569Z,62.99
2019-02-28T12:53:12.585Z,63.48
2019-02-28T12:54:12.776Z,74.95
2019-02-28T12:55:12.943Z,72.51
2019-02-28T12:56:14.366Z,66.16
2019-02-28T12:57:13.301Z,64.70
2019-02-28T12:58:13.495Z,66.89